createdAt,value
2022-08-17T00:04:20.948Z,5.10
2022-08-17T00:06:49.104Z,5.78
2022-08-17T00:09:18.836Z,5.72
2022-08-17T00:12:40.598Z,5.65
2022-08-17T00:14:35.313Z,5.47
2022-08-17T00:17:04.001Z,6.22
2022-08-17T00:19:32.822Z,6.43
2022-08-17T00:22:32.564Z,6.35
2022-08-17T00:24:50.524Z,5.85
2022-08-17T00:27:18.550Z,6.72
2022-08-17T00:29:46.131Z,6.05
2022-08-17T00:33:12.568Z,5.68
2022-08-17T00:35:06.095Z,5.75
2022-08-17T00:37:33.271Z,6.20
2022-08-17T00:40:00.504Z,6.05
2022-08-17T00:42:30.917Z,6.68
2022-08-17T00:44:58.884Z,5.90
2022-08-17T00:47:26.056Z,5.82
2022-08-17T00:49:53.385Z,5.72
2022-08-17T00:52:21.902Z,6.10
2022-08-17T00:54:49.867Z,6.40
2022-08-17T00:57:19.954Z,7.00
2022-08-17T01:00:02.024Z,5.90
2022-08-17T01:02:34.391Z,5.70
2022-08-17T01:05:10.875Z,6.05
2022-08-17T01:07:38.147Z,6.05
2022-08-17T01:10:06.377Z,6.22
2022-08-17T01:12:35.574Z,4.97
2022-08-17T01:15:03.103Z,5.57
2022-08-17T01:17:30.234Z,6.40
2022-08-17T01:19:57.459Z,6.53
2022-08-17T01:22:25.071Z,5.85
2022-08-17T01:25:02.041Z,5.63
2022-08-17T01:27:29.429Z,5.43
2022-08-17T01:29:59.657Z,5.97
2022-08-17T01:32:27.608Z,5.70
2022-08-17T01:34:54.898Z,6.43
2022-08-17T01:37:29.004Z,7.13
2022-08-17T01:40:19.853Z,8.00
2022-08-17T01:42:50.949Z,6.97
2022-08-17T01:45:26.899Z,7.50
2022-08-17T01:47:54.249Z,6.40
2022-08-17T01:50:24.637Z,6.45
2022-08-17T01:52:54.366Z,5.13
2022-08-17T01:55:27.317Z,5.00
2022-08-17T01:57:54.718Z,5.93
2022-08-17T02:00:21.755Z,5.15
2022-08-17T02:02:48.951Z,5.35
2022-08-17T02:05:16.306Z,5.65
2022-08-17T02:07:59.892Z,5.22
2022-08-17T02:10:32.921Z,6.05
2022-08-17T02:15:29.390Z,5.57
2022-08-17T02:17:56.580Z,6.32
2022-08-17T02:20:41.366Z,6.82
2022-08-17T02:23:11.216Z,7.15
2022-08-17T02:25:38.214Z,5.97
2022-08-17T02:28:05.358Z,5.85
2022-08-17T02:30:50.216Z,6.97
2022-08-17T02:33:21.014Z,5.80
2022-08-17T02:35:48.766Z,5.70
2022-08-17T02:38:15.791Z,6.55
2022-08-17T02:40:42.875Z,6.25
2022-08-17T02:43:13.920Z,6.25
2022-08-17T02:45:40.928Z,5.82
2022-08-17T02:48:08.053Z,6.65
2022-08-17T02:50:35.051Z,6.72
2022-08-17T02:53:02.928Z,5.95
2022-08-17T02:55:34.555Z,6.00
2022-08-17T02:58:03.875Z,6.15
2022-08-17T03:00:35.488Z,6.60
2022-08-17T03:03:04.482Z,6.30
2022-08-17T03:05:32.504Z,6.20
2022-08-17T03:07:59.556Z,6.45
2022-08-17T03:10:26.742Z,6.32
2022-08-17T03:12:54.156Z,5.63
2022-08-17T03:15:25.205Z,5.88
2022-08-17T03:17:53.366Z,6.25
2022-08-17T03:20:20.873Z,5.53
2022-08-17T03:22:53.201Z,6.35
2022-08-17T03:25:33.306Z,6.45
2022-08-17T03:28:01.550Z,5.65
2022-08-17T03:30:28.807Z,6.05
2022-08-17T03:32:57.624Z,7.38
2022-08-17T03:35:26.186Z,6.85
2022-08-17T03:38:00.961Z,6.53
2022-08-17T03:40:34.770Z,6.03
2022-08-17T03:43:16.022Z,6.50
2022-08-17T03:46:02.086Z,5.75
2022-08-17T03:48:47.838Z,6.82
2022-08-17T03:51:36.806Z,6.03
2022-08-17T03:54:22.854Z,6.13
2022-08-17T03:57:03.839Z,6.00
2022-08-17T03:59:31.334Z,5.38
2022-08-17T04:02:01.089Z,5.65
2022-08-17T04:04:28.285Z,6.90
2022-08-17T04:06:55.293Z,6.55
2022-08-17T04:09:22.340Z,6.25
2022-08-17T04:11:49.369Z,7.28
2022-08-17T04:14:16.432Z,6.75
2022-08-17T04:16:43.381Z,6.38
2022-08-17T04:19:10.486Z,5.43
2022-08-17T04:21:37.572Z,6.82
2022-08-17T04:24:05.242Z,6.07
2022-08-17T04:26:53.947Z,5.55
2022-08-17T04:29:19.644Z,5.65
2022-08-17T04:31:46.653Z,6.22
2022-08-17T04:34:13.685Z,6.18
2022-08-17T04:36:40.668Z,6.50
2022-08-17T04:39:17.555Z,6.60
2022-08-17T04:42:03.856Z,5.72
2022-08-17T04:44:37.711Z,6.88
2022-08-17T04:47:05.602Z,6.28
2022-08-17T04:49:33.703Z,5.78
2022-08-17T04:52:04.591Z,5.05
2022-08-17T04:54:32.236Z,5.68
2022-08-17T04:57:02.654Z,6.03
2022-08-17T04:59:30.306Z,5.40
2022-08-17T05:01:58.162Z,5.68
2022-08-17T05:04:34.343Z,6.22
2022-08-17T05:07:03.358Z,5.90
2022-08-17T05:09:30.493Z,6.47
2022-08-17T05:12:01.497Z,6.38
2022-08-17T05:14:32.303Z,6.32
2022-08-17T05:17:01.497Z,5.85
2022-08-17T05:19:31.150Z,6.00
2022-08-17T05:21:58.136Z,6.68
2022-08-17T05:24:43.244Z,6.38
2022-08-17T05:27:17.804Z,6.32
2022-08-17T05:29:46.388Z,7.60
2022-08-17T05:32:39.691Z,6.05
2022-08-17T05:35:01.137Z,5.93
2022-08-17T05:37:28.098Z,5.97
2022-08-17T05:39:55.269Z,7.35
2022-08-17T05:42:22.509Z,8.25
2022-08-17T05:44:49.610Z,6.65
2022-08-17T05:47:17.061Z,7.40
2022-08-17T05:49:44.166Z,6.40
2022-08-17T05:52:24.155Z,6.95
2022-08-17T05:55:03.860Z,5.88
2022-08-17T06:00:50.974Z,7.03
2022-08-17T06:03:48.650Z,6.57
2022-08-17T06:06:38.053Z,6.90
2022-08-17T06:09:14.111Z,5.68
2022-08-17T06:11:46.532Z,6.38
2022-08-17T06:14:42.751Z,6.15
2022-08-17T06:17:12.961Z,7.47
2022-08-17T06:19:42.668Z,7.72
2022-08-17T06:22:12.255Z,7.32
2022-08-17T06:24:54.479Z,7.43
2022-08-17T06:27:53.614Z,7.60
2022-08-17T06:30:21.942Z,7.00
2022-08-17T06:32:50.174Z,7.50
2022-08-17T06:35:38.248Z,8.48
2022-08-17T06:38:37.863Z,8.82
2022-08-17T06:41:17.224Z,8.13
2022-08-17T06:44:06.299Z,8.30
2022-08-17T06:46:41.934Z,9.25
2022-08-17T06:49:26.050Z,8.45
2022-08-17T06:52:45.402Z,8.40
2022-08-17T06:55:26.580Z,8.05
2022-08-17T06:57:58.465Z,7.70
2022-08-17T07:00:33.937Z,7.88
2022-08-17T07:03:08.802Z,8.43
2022-08-17T07:05:46.562Z,7.32
2022-08-17T07:08:45.284Z,7.90
2022-08-17T07:11:15.287Z,8.52
2022-08-17T07:14:17.382Z,8.00
2022-08-17T07:16:47.235Z,8.13
2022-08-17T07:19:16.910Z,7.93
2022-08-17T07:22:05.617Z,7.90
2022-08-17T07:24:52.327Z,7.82
2022-08-17T07:27:21.903Z,7.70
2022-08-17T07:29:57.737Z,8.75
2022-08-17T07:32:31.727Z,8.43
2022-08-17T07:35:10.709Z,8.30
2022-08-17T07:37:39.894Z,8.93
2022-08-17T07:40:31.079Z,8.02
2022-08-17T07:43:03.301Z,7.28
2022-08-17T07:45:50.603Z,7.82
2022-08-17T07:48:20.701Z,7.45
2022-08-17T07:50:49.577Z,8.63
2022-08-17T07:53:23.303Z,7.25
2022-08-17T07:55:50.785Z,7.03
2022-08-17T07:58:20.002Z,7.80
2022-08-17T08:00:47.159Z,8.23
2022-08-17T08:03:27.334Z,7.85
2022-08-17T08:05:57.850Z,8.70
2022-08-17T08:08:28.333Z,7.43
2022-08-17T08:11:02.723Z,7.55
2022-08-17T08:13:30.393Z,7.93
2022-08-17T08:16:27.317Z,7.45
2022-08-17T08:19:00.059Z,6.93
2022-08-17T08:21:43.187Z,7.63
2022-08-17T08:24:16.232Z,6.78
2022-08-17T08:26:58.772Z,8.75
2022-08-17T08:29:53.439Z,8.37
2022-08-17T08:32:40.010Z,7.88
2022-08-17T08:35:18.287Z,7.70
2022-08-17T08:37:52.403Z,7.85
2022-08-17T08:40:44.309Z,8.32
2022-08-17T08:43:26.743Z,8.25
2022-08-17T08:46:11.727Z,8.57
2022-08-17T08:49:06.472Z,7.85
2022-08-17T08:51:55.758Z,7.65
2022-08-17T08:54:35.003Z,8.63
2022-08-17T08:57:30.778Z,8.07
2022-08-17T09:00:16.656Z,7.75
2022-08-17T09:03:20.518Z,8.25
2022-08-17T09:08:35.276Z,7.10
2022-08-17T09:11:06.404Z,7.15
2022-08-17T09:13:39.506Z,6.90
2022-08-17T09:19:01.562Z,6.88
2022-08-17T09:21:54.868Z,7.00
2022-08-17T09:24:41.893Z,6.97
2022-08-17T09:27:15.909Z,6.93
2022-08-17T09:29:49.098Z,7.63
2022-08-17T09:32:31.958Z,7.38
2022-08-17T09:35:05.632Z,7.68
2022-08-17T09:37:56.753Z,7.20
2022-08-17T09:40:33.939Z,7.65
2022-08-17T09:43:19.676Z,7.15
2022-08-17T09:45:52.767Z,7.70
2022-08-17T09:48:33.923Z,7.15
2022-08-17T09:51:06.446Z,7.80
2022-08-17T09:53:36.282Z,8.20
2022-08-17T09:56:25.216Z,7.05
2022-08-17T09:59:04.210Z,6.72
2022-08-17T10:01:50.791Z,7.22
2022-08-17T10:04:48.349Z,7.07
2022-08-17T10:07:21.277Z,6.22
2022-08-17T10:10:13.570Z,6.65
2022-08-17T10:12:59.082Z,7.28
2022-08-17T10:15:54.854Z,6.82
2022-08-17T10:18:43.357Z,5.68
2022-08-17T10:21:47.023Z,6.55
2022-08-17T10:25:22.114Z,7.07
2022-08-17T10:27:52.672Z,6.28
2022-08-17T10:30:25.210Z,6.93
2022-08-17T10:32:59.419Z,6.47
2022-08-17T10:35:30.895Z,6.35
2022-08-17T10:38:21.534Z,7.30
2022-08-17T10:41:00.217Z,7.57
2022-08-17T10:43:29.687Z,5.72
2022-08-17T10:46:31.352Z,6.10
2022-08-17T10:49:17.268Z,6.95
2022-08-17T10:51:47.611Z,6.38
2022-08-17T10:54:39.146Z,6.90
2022-08-17T10:57:45.634Z,6.55
2022-08-17T11:00:28.634Z,6.47
2022-08-17T11:02:56.204Z,6.30
2022-08-17T11:05:52.583Z,6.78
2022-08-17T11:08:45.574Z,5.70
2022-08-17T11:11:36.260Z,6.43
2022-08-17T11:14:23.901Z,6.80
2022-08-17T11:17:08.267Z,6.85
2022-08-17T11:19:59.675Z,6.75
2022-08-17T11:22:33.387Z,7.20
2022-08-17T11:25:16.983Z,6.55
2022-08-17T11:27:44.736Z,6.35
2022-08-17T11:30:36.161Z,6.72
2022-08-17T11:33:29.030Z,5.88
2022-08-17T11:39:03.434Z,5.63
2022-08-17T11:41:41.393Z,7.05
2022-08-17T11:44:20.595Z,6.32
2022-08-17T11:47:27.814Z,6.18
2022-08-17T11:50:19.362Z,5.97
2022-08-17T11:52:48.228Z,6.35
2022-08-17T11:55:37.488Z,6.28
2022-08-17T11:58:31.423Z,5.75
2022-08-17T12:01:06.200Z,6.00
2022-08-17T12:03:41.299Z,5.80
2022-08-17T12:06:31.109Z,5.85
2022-08-17T12:09:48.924Z,6.30
2022-08-17T12:12:33.110Z,5.95
2022-08-17T12:15:15.921Z,6.25
2022-08-17T12:18:03.009Z,5.55
2022-08-17T12:20:34.357Z,6.70
2022-08-17T12:23:10.523Z,5.65
2022-08-17T12:25:53.001Z,5.90
2022-08-17T12:31:02.883Z,4.88
2022-08-17T12:33:40.012Z,5.38
2022-08-17T12:36:17.012Z,5.40
2022-08-17T12:39:14.512Z,6.13
2022-08-17T12:41:51.555Z,6.38
2022-08-17T12:44:22.611Z,5.93
2022-08-17T12:47:24.515Z,6.10
2022-08-17T12:50:28.234Z,6.18
2022-08-17T12:53:01.770Z,6.70
2022-08-17T12:58:02.016Z,5.90
2022-08-17T13:00:35.927Z,7.07
2022-08-17T13:03:09.427Z,5.55
2022-08-17T13:05:54.541Z,7.03
2022-08-17T13:08:38.287Z,6.10
2022-08-17T13:11:06.450Z,6.00
2022-08-17T13:13:37.914Z,6.05
2022-08-17T13:16:12.149Z,6.20
2022-08-17T13:18:44.519Z,6.32
2022-08-17T13:21:41.242Z,5.93
2022-08-17T13:24:11.066Z,6.60
2022-08-17T13:26:40.531Z,5.78
2022-08-17T13:29:24.162Z,5.53
2022-08-17T13:32:14.412Z,5.60
2022-08-17T13:35:08.325Z,5.80
2022-08-17T13:37:35.549Z,6.13
2022-08-17T13:40:14.504Z,5.40
2022-08-17T13:42:53.963Z,5.95
2022-08-17T13:45:36.483Z,6.32
2022-08-17T13:48:16.255Z,5.33
2022-08-17T13:51:03.102Z,5.80
2022-08-17T13:53:50.787Z,6.55
2022-08-17T13:56:51.271Z,5.63
2022-08-17T13:59:53.677Z,6.25
2022-08-17T14:02:21.645Z,5.82
2022-08-17T14:04:48.888Z,6.60
2022-08-17T14:07:16.295Z,7.10
2022-08-17T14:09:54.729Z,6.00
2022-08-17T14:12:24.676Z,6.32
2022-08-17T14:14:54.136Z,5.72
2022-08-17T14:17:23.050Z,5.63
2022-08-17T14:19:51.101Z,6.03
2022-08-17T14:22:30.766Z,5.60
2022-08-17T14:24:58.768Z,6.05
2022-08-17T14:27:28.321Z,5.55
2022-08-17T14:29:56.085Z,6.10
2022-08-17T14:32:25.509Z,6.22
2022-08-17T14:34:52.776Z,6.35
2022-08-17T14:37:20.560Z,5.85
2022-08-17T14:39:47.751Z,5.53
2022-08-17T14:42:15.704Z,6.53
2022-08-17T14:44:42.879Z,5.93
2022-08-17T14:47:15.238Z,5.00
2022-08-17T14:49:42.645Z,6.25
2022-08-17T14:52:10.931Z,5.93
2022-08-17T14:54:42.491Z,5.38
2022-08-17T14:57:25.144Z,6.47
2022-08-17T15:00:00.208Z,4.90
2022-08-17T15:02:31.199Z,6.32
2022-08-17T15:04:59.900Z,5.60
2022-08-17T15:07:30.958Z,5.88
2022-08-17T15:10:02.514Z,6.47
2022-08-17T15:12:33.264Z,6.25
2022-08-17T15:15:05.092Z,5.88
2022-08-17T15:17:44.617Z,5.90
2022-08-17T15:20:18.711Z,5.88
2022-08-17T15:22:47.020Z,6.10
2022-08-17T15:25:14.272Z,6.22
2022-08-17T15:27:41.840Z,6.28
2022-08-17T15:30:10.126Z,5.97
2022-08-17T15:32:50.851Z,6.30
2022-08-17T15:35:22.023Z,5.63
2022-08-17T15:37:55.785Z,6.07
2022-08-17T15:40:23.289Z,6.43
2022-08-17T15:42:52.525Z,5.75
2022-08-17T15:45:31.471Z,6.38
2022-08-17T15:48:04.735Z,6.57
2022-08-17T15:50:46.695Z,5.90
2022-08-17T15:53:17.761Z,6.13
2022-08-17T16:03:13.702Z,5.38
2022-08-17T16:08:20.611Z,6.35
2022-08-17T16:11:29.265Z,6.35
2022-08-17T16:14:15.757Z,6.38
2022-08-17T16:20:21.098Z,6.03
2022-08-17T16:29:47.057Z,6.72
2022-08-17T16:32:55.503Z,6.47
2022-08-17T16:35:41.755Z,6.03
2022-08-17T16:38:44.283Z,6.13
2022-08-17T16:51:40.433Z,6.38
2022-08-17T16:54:38.625Z,6.97
2022-08-17T17:10:23.658Z,5.85
2022-08-17T17:13:23.347Z,6.43
2022-08-17T17:23:18.980Z,6.40
2022-08-17T18:31:09.588Z,7.75
2022-08-17T19:36:13.201Z,10.90
2022-08-17T19:38:45.143Z,9.90
2022-08-17T19:41:30.108Z,9.82
2022-08-17T19:44:35.441Z,11.27
2022-08-17T19:47:43.127Z,10.55
2022-08-17T19:50:22.299Z,9.23
2022-08-17T19:53:54.278Z,9.65
2022-08-17T19:56:29.235Z,9.88
2022-08-17T19:59:14.429Z,9.77
2022-08-17T20:01:54.490Z,9.52
2022-08-17T20:04:32.484Z,9.88
2022-08-17T20:07:24.290Z,9.05
2022-08-17T20:09:55.262Z,9.73
2022-08-17T20:12:24.528Z,8.23
2022-08-17T20:15:08.877Z,8.65
2022-08-17T20:17:39.003Z,8.20
2022-08-17T20:20:19.786Z,8.77
2022-08-17T20:22:59.495Z,9.87
2022-08-17T20:25:36.732Z,8.95
2022-08-17T20:28:07.057Z,10.73
2022-08-17T20:30:41.232Z,9.57
2022-08-17T20:33:29.301Z,9.32
2022-08-17T20:36:11.934Z,9.32
2022-08-17T22:42:06.562Z,6.22
2022-08-17T22:44:44.569Z,7.25
2022-08-17T22:47:15.253Z,7.68
2022-08-17T22:49:57.935Z,7.82
2022-08-17T22:53:02.862Z,7.70
2022-08-17T22:55:49.850Z,7.22
2022-08-17T22:58:38.197Z,7.63
2022-08-17T23:01:26.096Z,6.63
2022-08-17T23:03:57.950Z,6.55
2022-08-17T23:06:25.137Z,7.13
2022-08-17T23:08:56.645Z,6.70
2022-08-17T23:11:42.894Z,7.05
2022-08-17T23:14:15.952Z,6.85
2022-08-17T23:16:43.130Z,7.88
2022-08-17T23:19:11.523Z,6.88
2022-08-17T23:21:38.644Z,7.55
2022-08-17T23:24:06.958Z,9.27
2022-08-17T23:26:38.069Z,7.53
2022-08-17T23:29:06.635Z,7.40
2022-08-17T23:31:34.856Z,7.47
2022-08-17T23:34:03.302Z,7.68
2022-08-17T23:36:31.805Z,7.72
2022-08-17T23:38:58.974Z,7.78
2022-08-17T23:41:27.148Z,8.50
2022-08-17T23:43:58.339Z,6.95
2022-08-17T23:46:25.450Z,6.90
2022-08-17T23:48:54.324Z,7.88
2022-08-17T23:51:27.490Z,6.70
2022-08-17T23:54:08.098Z,7.20
2022-08-17T23:56:42.412Z,6.93
2022-08-17T23:59:09.642Z,6.70
